Leesburg, VA (20175)

20:38 EST le 24 novembre 2014 (GMT -0500)
outside leesburg | Change Station
CLOSE
Current Station
Stations météorologiques personnelles
Location: Leesburg, VA
Altitude: 463 ft
Stations météo à proximité
Avis météorologiques actifs: Winter Storm Watch Préavis actif: Record Report

Alt. 463 ft 39.08 °N, 77.61 °W | Updated 8 minutes ago

Clear
Ciel dégagé
61.5 ° F
Paraît 61.5 ° F
N
2.2
Vent Variable Vent de ESE

Aujourd'hui
Haut(e) -- | Bas -- ° F
--% Risque de précip.
Hier
Haut(e) -- | Bas -- ° F
Precip. -- pouce
7:03 AM 4:50 PM
Lune montante, 8% visible
Pression 29.70 pouce
Visibilité 10.0 Miles terrestres
Nuages Ciel dégagé
Point de rosée 52 ° F
Humidité 72%
Précipitations 0.40 pouce
Profondeur de la couche neigeuse Non disponible.
UV 0 sur 12
Pollen .10 sur 12
Qualité de l'air Non disponible.
Flu Activity Non disponible.
METAR KJYO 250115Z AUTO 19010G15KT 10SM CLR 18/13 A2970 RMK AO2

More Conditions Fewer Conditions

Pression 29.70 pouce
Visibilité 10.0 Miles terrestres
Nuages Ciel dégagé
Point de rosée 52 ° F
Humidité 72%
Précipitations 0.40 pouce
Profondeur de la couche neigeuse Non disponible.
UV 0 sur 12
Pollen .10 sur 12
Qualité de l'air Non disponible.
Flu Activity Non disponible.
METAR KJYO 250115Z AUTO 19010G15KT 10SM CLR 18/13 A2970 RMK AO2

More Conditions Fewer Conditions

10-Day Weather Forecast

Almanac

Astronomie

Nov. 24, 2014 Lever Coucher
Temps réel
Crépuscule civil
Crépuscule nautique
Crépuscule astronomique
Lune
Durée de lumière visible
Longueur du jour
Tomorrow will be .
, % of the Moon is Illuminated

Extrêmes aujourd'hui

State Highs State Lows

Community

WunderPhotos

Upload Photos

1,773,457 Photos téléchargées !

WunderBlogs® & News

Nearby

Qualité de l'air

  Qualité de l'air Indice de la qualité de l'air Polluant
Not available.

Épaisseur de neige

Station Depth Altitude

Activité sismique

Ville Distance Mag. Time & Date
Minimum magnitude displayed is 2.5.

Températures des eaux côtières

Lieu Température

Stations météo à proximité